Terminal Aerodrome Forecast
Issued by NWS Duluth, MN

Home | Current Version | Previous Version | Text Only | Print | Product List | Glossary On
Versions: 1 2 3 4 5 6 7 8 9 10 11 12 13 14 15 16
120
FTUS43 KDLH 232334
TAFINL
TAF
KINL 232334Z 2400/2424 14009KT P6SM VCSH SCT080 OVC150
      TEMPO 2401/2403 5SM TSRA BR SCT015CB BKN035
     FM240300 14007KT P6SM -SHRA VCTS OVC040CB
     FM240500 18004KT 4SM -SHRA BR SCT007 OVC015
     FM240800 22004KT 4SM BR OVC013
     FM241300 27011G16KT P6SM BKN017
     FM241700 28014G21KT P6SM BKN040=

USA.gov is the U.S. government's official web portal to all federal, state and local government web resources and services.